sensor_id;sensor_type;location;lat;lon;timestamp;P1;durP1;ratioP1;P2;durP2;ratioP2
73919;SDS011;62266;53.348;-1.496;2022-10-13T00:01:11;5.57;;;2.30;;
73919;SDS011;62266;53.348;-1.496;2022-10-13T00:03:41;8.43;;;2.38;;
73919;SDS011;62266;53.348;-1.496;2022-10-13T00:06:10;6.97;;;2.40;;
73919;SDS011;62266;53.348;-1.496;2022-10-13T00:08:36;7.57;;;2.37;;
73919;SDS011;62266;53.348;-1.496;2022-10-13T00:13:38;5.97;;;2.60;;
73919;SDS011;62266;53.348;-1.496;2022-10-13T00:16:04;8.48;;;2.50;;
73919;SDS011;62266;53.348;-1.496;2022-10-13T00:18:29;6.83;;;2.40;;
73919;SDS011;62266;53.348;-1.496;2022-10-13T00:20:55;6.07;;;2.53;;
73919;SDS011;62266;53.348;-1.496;2022-10-13T00:23:20;6.00;;;2.17;;
73919;SDS011;62266;53.348;-1.496;2022-10-13T00:25:47;9.03;;;2.83;;
73919;SDS011;62266;53.348;-1.496;2022-10-13T00:28:13;5.15;;;2.58;;
73919;SDS011;62266;53.348;-1.496;2022-10-13T00:30:40;6.05;;;2.92;;
73919;SDS011;62266;53.348;-1.496;2022-10-13T00:33:06;8.38;;;2.65;;
73919;SDS011;62266;53.348;-1.496;2022-10-13T00:35:32;7.97;;;2.50;;
73919;SDS011;62266;53.348;-1.496;2022-10-13T00:37:59;5.57;;;2.80;;
73919;SDS011;62266;53.348;-1.496;2022-10-13T00:40:24;9.73;;;2.90;;
73919;SDS011;62266;53.348;-1.496;2022-10-13T00:42:49;5.53;;;2.63;;
73919;SDS011;62266;53.348;-1.496;2022-10-13T00:45:20;6.83;;;2.50;;
73919;SDS011;62266;53.348;-1.496;2022-10-13T00:47:56;7.43;;;2.47;;
73919;SDS011;62266;53.348;-1.496;2022-10-13T00:50:24;7.95;;;2.70;;
73919;SDS011;62266;53.348;-1.496;2022-10-13T00:52:53;7.72;;;2.50;;
73919;SDS011;62266;53.348;-1.496;2022-10-13T00:55:21;8.17;;;2.60;;
73919;SDS011;62266;53.348;-1.496;2022-10-13T00:57:48;7.65;;;2.78;;
73919;SDS011;62266;53.348;-1.496;2022-10-13T01:00:22;6.82;;;2.65;;
73919;SDS011;62266;53.348;-1.496;2022-10-13T01:02:49;7.18;;;2.80;;
73919;SDS011;62266;53.348;-1.496;2022-10-13T01:05:16;7.90;;;2.63;;
73919;SDS011;62266;53.348;-1.496;2022-10-13T01:07:43;4.47;;;2.57;;
73919;SDS011;62266;53.348;-1.496;2022-10-13T01:10:25;6.72;;;2.50;;
73919;SDS011;62266;53.348;-1.496;2022-10-13T01:18:25;7.25;;;2.63;;
73919;SDS011;62266;53.348;-1.496;2022-10-13T01:21:00;5.33;;;2.90;;
73919;SDS011;62266;53.348;-1.496;2022-10-13T01:26:26;6.18;;;3.33;;
73919;SDS011;62266;53.348;-1.496;2022-10-13T01:34:51;6.20;;;3.17;;
73919;SDS011;62266;53.348;-1.496;2022-10-13T01:43:00;9.15;;;3.17;;
73919;SDS011;62266;53.348;-1.496;2022-10-13T01:46:12;7.25;;;2.90;;
73919;SDS011;62266;53.348;-1.496;2022-10-13T01:48:39;8.23;;;3.10;;
73919;SDS011;62266;53.348;-1.496;2022-10-13T01:51:16;7.35;;;3.38;;
73919;SDS011;62266;53.348;-1.496;2022-10-13T01:53:44;7.97;;;3.10;;
73919;SDS011;62266;53.348;-1.496;2022-10-13T01:56:11;5.93;;;2.80;;
73919;SDS011;62266;53.348;-1.496;2022-10-13T01:58:37;7.72;;;3.08;;
73919;SDS011;62266;53.348;-1.496;2022-10-13T02:01:12;10.90;;;3.67;;
73919;SDS011;62266;53.348;-1.496;2022-10-13T02:03:51;7.00;;;2.50;;
73919;SDS011;62266;53.348;-1.496;2022-10-13T02:09:13;6.28;;;2.30;;
73919;SDS011;62266;53.348;-1.496;2022-10-13T02:12:07;8.77;;;3.35;;
73919;SDS011;62266;53.348;-1.496;2022-10-13T02:14:42;9.63;;;2.90;;
73919;SDS011;62266;53.348;-1.496;2022-10-13T02:17:10;7.72;;;2.80;;
73919;SDS011;62266;53.348;-1.496;2022-10-13T02:19:41;9.18;;;3.83;;
73919;SDS011;62266;53.348;-1.496;2022-10-13T02:22:09;6.80;;;2.47;;
73919;SDS011;62266;53.348;-1.496;2022-10-13T02:24:36;5.55;;;2.78;;
73919;SDS011;62266;53.348;-1.496;2022-10-13T02:27:04;7.27;;;2.70;;
73919;SDS011;62266;53.348;-1.496;2022-10-13T02:29:31;6.85;;;2.42;;
73919;SDS011;62266;53.348;-1.496;2022-10-13T02:32:00;7.57;;;3.13;;
73919;SDS011;62266;53.348;-1.496;2022-10-13T02:34:26;7.78;;;2.58;;
73919;SDS011;62266;53.348;-1.496;2022-10-13T02:36:52;6.10;;;2.60;;
73919;SDS011;62266;53.348;-1.496;2022-10-13T02:39:20;6.80;;;3.00;;
73919;SDS011;62266;53.348;-1.496;2022-10-13T02:41:46;5.65;;;2.45;;
73919;SDS011;62266;53.348;-1.496;2022-10-13T02:44:12;5.93;;;2.80;;
73919;SDS011;62266;53.348;-1.496;2022-10-13T02:46:38;5.53;;;2.53;;
73919;SDS011;62266;53.348;-1.496;2022-10-13T02:49:08;5.63;;;3.25;;
73919;SDS011;62266;53.348;-1.496;2022-10-13T02:51:34;8.38;;;2.58;;
73919;SDS011;62266;53.348;-1.496;2022-10-13T02:54:00;9.47;;;2.33;;
73919;SDS011;62266;53.348;-1.496;2022-10-13T02:56:27;5.45;;;2.72;;
73919;SDS011;62266;53.348;-1.496;2022-10-13T02:58:53;9.80;;;2.22;;
73919;SDS011;62266;53.348;-1.496;2022-10-13T03:01:19;6.15;;;2.40;;
73919;SDS011;62266;53.348;-1.496;2022-10-13T03:03:45;8.30;;;2.60;;
73919;SDS011;62266;53.348;-1.496;2022-10-13T03:06:14;7.00;;;2.40;;
73919;SDS011;62266;53.348;-1.496;2022-10-13T03:08:40;5.15;;;1.90;;
73919;SDS011;62266;53.348;-1.496;2022-10-13T03:11:10;6.82;;;2.10;;
73919;SDS011;62266;53.348;-1.496;2022-10-13T03:13:36;9.90;;;1.98;;
73919;SDS011;62266;53.348;-1.496;2022-10-13T03:16:22;6.90;;;2.37;;
73919;SDS011;62266;53.348;-1.496;2022-10-13T03:18:48;4.40;;;1.98;;
73919;SDS011;62266;53.348;-1.496;2022-10-13T03:21:18;7.88;;;1.92;;
73919;SDS011;62266;53.348;-1.496;2022-10-13T03:23:44;6.07;;;2.00;;
73919;SDS011;62266;53.348;-1.496;2022-10-13T03:26:11;7.65;;;2.90;;
73919;SDS011;62266;53.348;-1.496;2022-10-13T03:28:40;8.90;;;2.20;;
73919;SDS011;62266;53.348;-1.496;2022-10-13T03:31:09;5.93;;;2.60;;
73919;SDS011;62266;53.348;-1.496;2022-10-13T03:33:36;6.63;;;2.60;;
73919;SDS011;62266;53.348;-1.496;2022-10-13T03:36:05;5.97;;;2.47;;
73919;SDS011;62266;53.348;-1.496;2022-10-13T03:38:33;7.22;;;2.38;;
73919;SDS011;62266;53.348;-1.496;2022-10-13T03:43:40;6.32;;;2.50;;
73919;SDS011;62266;53.348;-1.496;2022-10-13T03:46:09;5.82;;;2.47;;
73919;SDS011;62266;53.348;-1.496;2022-10-13T03:48:39;5.65;;;2.33;;
73919;SDS011;62266;53.348;-1.496;2022-10-13T03:51:06;6.65;;;2.42;;
73919;SDS011;62266;53.348;-1.496;2022-10-13T03:53:38;13.80;;;2.87;;
73919;SDS011;62266;53.348;-1.496;2022-10-13T03:56:12;8.05;;;2.83;;
73919;SDS011;62266;53.348;-1.496;2022-10-13T03:58:52;4.93;;;1.90;;
73919;SDS011;62266;53.348;-1.496;2022-10-13T04:01:20;7.60;;;2.30;;
73919;SDS011;62266;53.348;-1.496;2022-10-13T04:03:49;6.95;;;1.95;;
73919;SDS011;62266;53.348;-1.496;2022-10-13T04:06:22;9.73;;;2.43;;
73919;SDS011;62266;53.348;-1.496;2022-10-13T04:08:56;4.25;;;2.10;;
73919;SDS011;62266;53.348;-1.496;2022-10-13T04:11:23;5.10;;;2.38;;
73919;SDS011;62266;53.348;-1.496;2022-10-13T04:13:49;7.10;;;1.83;;
73919;SDS011;62266;53.348;-1.496;2022-10-13T04:16:21;8.50;;;1.73;;
73919;SDS011;62266;53.348;-1.496;2022-10-13T04:19:00;5.82;;;1.70;;
73919;SDS011;62266;53.348;-1.496;2022-10-13T04:21:28;3.00;;;1.70;;
73919;SDS011;62266;53.348;-1.496;2022-10-13T04:23:55;5.83;;;1.73;;
73919;SDS011;62266;53.348;-1.496;2022-10-13T04:26:22;6.72;;;2.00;;
73919;SDS011;62266;53.348;-1.496;2022-10-13T04:28:50;5.25;;;2.08;;
73919;SDS011;62266;53.348;-1.496;2022-10-13T04:31:17;5.85;;;2.17;;
73919;SDS011;62266;53.348;-1.496;2022-10-13T04:33:43;4.22;;;1.70;;
73919;SDS011;62266;53.348;-1.496;2022-10-13T04:36:10;6.43;;;2.33;;
73919;SDS011;62266;53.348;-1.496;2022-10-13T04:38:37;5.65;;;2.20;;
73919;SDS011;62266;53.348;-1.496;2022-10-13T04:41:03;5.17;;;1.70;;
73919;SDS011;62266;53.348;-1.496;2022-10-13T04:43:30;7.28;;;2.00;;
73919;SDS011;62266;53.348;-1.496;2022-10-13T04:46:00;4.43;;;1.67;;
73919;SDS011;62266;53.348;-1.496;2022-10-13T04:48:28;5.32;;;1.88;;
73919;SDS011;62266;53.348;-1.496;2022-10-13T04:53:26;5.45;;;1.70;;
73919;SDS011;62266;53.348;-1.496;2022-10-13T04:55:54;7.75;;;2.03;;
73919;SDS011;62266;53.348;-1.496;2022-10-13T04:58:29;4.07;;;1.75;;
73919;SDS011;62266;53.348;-1.496;2022-10-13T05:00:59;9.37;;;1.70;;
73919;SDS011;62266;53.348;-1.496;2022-10-13T05:03:25;2.55;;;1.60;;
73919;SDS011;62266;53.348;-1.496;2022-10-13T05:05:52;6.85;;;1.98;;
73919;SDS011;62266;53.348;-1.496;2022-10-13T05:11:11;4.88;;;2.25;;
73919;SDS011;62266;53.348;-1.496;2022-10-13T05:13:45;5.68;;;1.80;;
73919;SDS011;62266;53.348;-1.496;2022-10-13T05:16:14;3.30;;;1.88;;
73919;SDS011;62266;53.348;-1.496;2022-10-13T05:18:41;5.30;;;1.47;;
73919;SDS011;62266;53.348;-1.496;2022-10-13T05:21:12;4.97;;;1.55;;
73919;SDS011;62266;53.348;-1.496;2022-10-13T05:23:39;5.82;;;1.10;;
73919;SDS011;62266;53.348;-1.496;2022-10-13T05:26:11;5.40;;;1.30;;
73919;SDS011;62266;53.348;-1.496;2022-10-13T05:28:42;4.65;;;1.45;;
73919;SDS011;62266;53.348;-1.496;2022-10-13T05:31:12;5.13;;;1.30;;
73919;SDS011;62266;53.348;-1.496;2022-10-13T05:33:42;3.88;;;1.58;;
73919;SDS011;62266;53.348;-1.496;2022-10-13T05:36:10;4.05;;;1.90;;
73919;SDS011;62266;53.348;-1.496;2022-10-13T05:38:38;3.55;;;1.30;;
73919;SDS011;62266;53.348;-1.496;2022-10-13T05:41:05;4.03;;;1.60;;
73919;SDS011;62266;53.348;-1.496;2022-10-13T05:43:36;6.23;;;1.43;;
73919;SDS011;62266;53.348;-1.496;2022-10-13T05:46:05;5.60;;;1.80;;
73919;SDS011;62266;53.348;-1.496;2022-10-13T05:48:33;5.43;;;2.35;;
73919;SDS011;62266;53.348;-1.496;2022-10-13T05:51:00;7.18;;;1.95;;
73919;SDS011;62266;53.348;-1.496;2022-10-13T05:53:50;6.60;;;2.35;;
73919;SDS011;62266;53.348;-1.496;2022-10-13T05:56:19;6.30;;;2.47;;
73919;SDS011;62266;53.348;-1.496;2022-10-13T05:58:53;5.30;;;1.95;;
73919;SDS011;62266;53.348;-1.496;2022-10-13T06:01:22;5.72;;;1.85;;
73919;SDS011;62266;53.348;-1.496;2022-10-13T06:03:50;7.72;;;2.00;;
73919;SDS011;62266;53.348;-1.496;2022-10-13T06:06:17;6.82;;;1.70;;
73919;SDS011;62266;53.348;-1.496;2022-10-13T06:08:43;3.90;;;1.53;;
73919;SDS011;62266;53.348;-1.496;2022-10-13T06:11:09;4.82;;;1.70;;
73919;SDS011;62266;53.348;-1.496;2022-10-13T06:13:37;6.00;;;1.98;;
73919;SDS011;62266;53.348;-1.496;2022-10-13T06:16:03;9.00;;;2.33;;
73919;SDS011;62266;53.348;-1.496;2022-10-13T06:18:39;7.00;;;2.17;;
73919;SDS011;62266;53.348;-1.496;2022-10-13T06:21:05;7.13;;;2.17;;
73919;SDS011;62266;53.348;-1.496;2022-10-13T06:23:31;5.78;;;2.05;;
73919;SDS011;62266;53.348;-1.496;2022-10-13T06:26:00;5.50;;;2.25;;
73919;SDS011;62266;53.348;-1.496;2022-10-13T06:28:25;5.17;;;2.03;;
73919;SDS011;62266;53.348;-1.496;2022-10-13T06:30:54;8.27;;;2.25;;
73919;SDS011;62266;53.348;-1.496;2022-10-13T06:33:31;5.97;;;1.77;;
73919;SDS011;62266;53.348;-1.496;2022-10-13T06:36:04;4.05;;;1.73;;
73919;SDS011;62266;53.348;-1.496;2022-10-13T06:38:31;6.85;;;1.80;;
73919;SDS011;62266;53.348;-1.496;2022-10-13T06:40:58;7.53;;;1.80;;
73919;SDS011;62266;53.348;-1.496;2022-10-13T06:43:25;4.70;;;1.50;;
73919;SDS011;62266;53.348;-1.496;2022-10-13T06:45:51;5.07;;;1.80;;
73919;SDS011;62266;53.348;-1.496;2022-10-13T06:48:18;5.30;;;1.42;;
73919;SDS011;62266;53.348;-1.496;2022-10-13T06:50:47;6.93;;;1.60;;
73919;SDS011;62266;53.348;-1.496;2022-10-13T06:53:12;5.43;;;2.10;;
73919;SDS011;62266;53.348;-1.496;2022-10-13T06:55:39;7.68;;;3.15;;
73919;SDS011;62266;53.348;-1.496;2022-10-13T06:58:09;12.55;;;6.20;;
73919;SDS011;62266;53.348;-1.496;2022-10-13T07:00:39;11.47;;;5.40;;
73919;SDS011;62266;53.348;-1.496;2022-10-13T07:03:05;8.23;;;3.65;;
73919;SDS011;62266;53.348;-1.496;2022-10-13T07:05:31;5.43;;;2.60;;
73919;SDS011;62266;53.348;-1.496;2022-10-13T07:07:59;8.23;;;3.13;;
73919;SDS011;62266;53.348;-1.496;2022-10-13T07:10:25;5.32;;;2.53;;
73919;SDS011;62266;53.348;-1.496;2022-10-13T07:13:04;7.38;;;2.65;;
73919;SDS011;62266;53.348;-1.496;2022-10-13T07:15:30;5.80;;;2.23;;
73919;SDS011;62266;53.348;-1.496;2022-10-13T07:17:56;5.38;;;2.05;;
73919;SDS011;62266;53.348;-1.496;2022-10-13T07:20:23;7.55;;;1.70;;
73919;SDS011;62266;53.348;-1.496;2022-10-13T07:22:51;5.30;;;2.00;;
73919;SDS011;62266;53.348;-1.496;2022-10-13T07:25:18;10.83;;;1.97;;
73919;SDS011;62266;53.348;-1.496;2022-10-13T07:27:44;5.30;;;1.58;;
73919;SDS011;62266;53.348;-1.496;2022-10-13T07:30:14;3.92;;;1.60;;
73919;SDS011;62266;53.348;-1.496;2022-10-13T07:32:40;5.63;;;1.80;;
73919;SDS011;62266;53.348;-1.496;2022-10-13T07:35:17;6.63;;;1.63;;
73919;SDS011;62266;53.348;-1.496;2022-10-13T07:37:44;6.43;;;1.90;;
73919;SDS011;62266;53.348;-1.496;2022-10-13T07:40:13;6.75;;;1.90;;
73919;SDS011;62266;53.348;-1.496;2022-10-13T07:42:39;4.90;;;1.70;;
73919;SDS011;62266;53.348;-1.496;2022-10-13T07:45:05;5.95;;;1.50;;
73919;SDS011;62266;53.348;-1.496;2022-10-13T07:47:32;5.13;;;1.73;;
73919;SDS011;62266;53.348;-1.496;2022-10-13T07:49:58;3.85;;;1.25;;
73919;SDS011;62266;53.348;-1.496;2022-10-13T07:52:24;4.65;;;1.73;;
73919;SDS011;62266;53.348;-1.496;2022-10-13T07:54:50;6.67;;;2.33;;
73919;SDS011;62266;53.348;-1.496;2022-10-13T07:57:16;4.22;;;2.13;;
73919;SDS011;62266;53.348;-1.496;2022-10-13T07:59:43;3.30;;;1.90;;
73919;SDS011;62266;53.348;-1.496;2022-10-13T08:02:09;8.63;;;2.25;;
73919;SDS011;62266;53.348;-1.496;2022-10-13T08:04:36;6.38;;;2.00;;
73919;SDS011;62266;53.348;-1.496;2022-10-13T08:07:02;5.63;;;1.90;;
73919;SDS011;62266;53.348;-1.496;2022-10-13T08:09:29;6.50;;;2.30;;
73919;SDS011;62266;53.348;-1.496;2022-10-13T08:11:56;7.53;;;2.22;;
73919;SDS011;62266;53.348;-1.496;2022-10-13T08:14:21;5.43;;;1.90;;
73919;SDS011;62266;53.348;-1.496;2022-10-13T08:16:47;5.07;;;1.90;;
73919;SDS011;62266;53.348;-1.496;2022-10-13T08:19:15;9.23;;;2.45;;
73919;SDS011;62266;53.348;-1.496;2022-10-13T08:21:41;7.85;;;1.95;;
73919;SDS011;62266;53.348;-1.496;2022-10-13T08:24:11;6.27;;;2.33;;
73919;SDS011;62266;53.348;-1.496;2022-10-13T08:26:45;5.07;;;1.92;;
73919;SDS011;62266;53.348;-1.496;2022-10-13T08:29:14;5.57;;;2.00;;
73919;SDS011;62266;53.348;-1.496;2022-10-13T08:31:40;6.07;;;1.90;;
73919;SDS011;62266;53.348;-1.496;2022-10-13T08:34:06;3.15;;;1.95;;
73919;SDS011;62266;53.348;-1.496;2022-10-13T08:36:32;11.37;;;2.83;;
73919;SDS011;62266;53.348;-1.496;2022-10-13T08:39:04;9.00;;;2.85;;
73919;SDS011;62266;53.348;-1.496;2022-10-13T08:41:32;5.10;;;2.20;;
73919;SDS011;62266;53.348;-1.496;2022-10-13T08:44:06;5.47;;;1.80;;
73919;SDS011;62266;53.348;-1.496;2022-10-13T08:46:46;4.05;;;1.77;;
73919;SDS011;62266;53.348;-1.496;2022-10-13T08:49:16;6.60;;;1.93;;
73919;SDS011;62266;53.348;-1.496;2022-10-13T08:51:42;4.65;;;1.63;;
73919;SDS011;62266;53.348;-1.496;2022-10-13T08:54:10;4.65;;;1.65;;
73919;SDS011;62266;53.348;-1.496;2022-10-13T08:56:40;8.27;;;2.45;;
73919;SDS011;62266;53.348;-1.496;2022-10-13T08:59:08;6.05;;;1.90;;
73919;SDS011;62266;53.348;-1.496;2022-10-13T09:01:42;5.43;;;1.70;;
73919;SDS011;62266;53.348;-1.496;2022-10-13T09:07:01;8.02;;;1.90;;
73919;SDS011;62266;53.348;-1.496;2022-10-13T09:09:28;7.05;;;1.60;;
73919;SDS011;62266;53.348;-1.496;2022-10-13T09:11:53;5.70;;;1.50;;
73919;SDS011;62266;53.348;-1.496;2022-10-13T09:14:27;6.28;;;1.55;;
73919;SDS011;62266;53.348;-1.496;2022-10-13T09:16:55;5.95;;;1.80;;
73919;SDS011;62266;53.348;-1.496;2022-10-13T09:21:51;7.40;;;1.65;;
73919;SDS011;62266;53.348;-1.496;2022-10-13T09:24:21;7.40;;;1.73;;
73919;SDS011;62266;53.348;-1.496;2022-10-13T09:26:48;4.25;;;1.40;;
73919;SDS011;62266;53.348;-1.496;2022-10-13T09:29:18;8.48;;;1.73;;
73919;SDS011;62266;53.348;-1.496;2022-10-13T09:31:48;7.70;;;1.73;;
73919;SDS011;62266;53.348;-1.496;2022-10-13T09:37:03;3.30;;;1.10;;
73919;SDS011;62266;53.348;-1.496;2022-10-13T09:39:30;10.27;;;1.83;;
73919;SDS011;62266;53.348;-1.496;2022-10-13T09:44:46;5.07;;;1.40;;
73919;SDS011;62266;53.348;-1.496;2022-10-13T09:47:20;6.05;;;1.17;;
73919;SDS011;62266;53.348;-1.496;2022-10-13T09:49:58;6.90;;;1.33;;
73919;SDS011;62266;53.348;-1.496;2022-10-13T09:52:27;8.73;;;1.95;;
73919;SDS011;62266;53.348;-1.496;2022-10-13T09:54:57;5.45;;;1.58;;
73919;SDS011;62266;53.348;-1.496;2022-10-13T09:57:43;10.13;;;1.50;;
73919;SDS011;62266;53.348;-1.496;2022-10-13T10:00:20;5.88;;;1.23;;
73919;SDS011;62266;53.348;-1.496;2022-10-13T10:02:53;7.47;;;1.50;;
73919;SDS011;62266;53.348;-1.496;2022-10-13T10:05:32;3.67;;;1.42;;
73919;SDS011;62266;53.348;-1.496;2022-10-13T10:08:10;3.58;;;1.58;;
73919;SDS011;62266;53.348;-1.496;2022-10-13T10:10:40;6.90;;;1.40;;
73919;SDS011;62266;53.348;-1.496;2022-10-13T10:13:09;3.37;;;1.10;;
73919;SDS011;62266;53.348;-1.496;2022-10-13T10:18:28;6.72;;;1.67;;
73919;SDS011;62266;53.348;-1.496;2022-10-13T10:23:50;4.18;;;1.50;;
73919;SDS011;62266;53.348;-1.496;2022-10-13T10:26:25;8.60;;;1.93;;
73919;SDS011;62266;53.348;-1.496;2022-10-13T10:29:10;4.93;;;1.08;;
73919;SDS011;62266;53.348;-1.496;2022-10-13T10:34:30;4.68;;;1.33;;
73919;SDS011;62266;53.348;-1.496;2022-10-13T10:45:11;3.92;;;1.23;;
73919;SDS011;62266;53.348;-1.496;2022-10-13T10:47:41;6.57;;;1.30;;
73919;SDS011;62266;53.348;-1.496;2022-10-13T10:50:11;6.70;;;1.83;;
73919;SDS011;62266;53.348;-1.496;2022-10-13T10:55:19;5.78;;;1.33;;
73919;SDS011;62266;53.348;-1.496;2022-10-13T11:01:13;5.75;;;1.42;;
73919;SDS011;62266;53.348;-1.496;2022-10-13T11:06:45;3.93;;;1.00;;
73919;SDS011;62266;53.348;-1.496;2022-10-13T11:09:10;4.28;;;1.10;;
73919;SDS011;62266;53.348;-1.496;2022-10-13T11:11:40;8.50;;;1.80;;
73919;SDS011;62266;53.348;-1.496;2022-10-13T11:30:37;5.20;;;1.47;;
73919;SDS011;62266;53.348;-1.496;2022-10-13T11:45:40;9.00;;;1.73;;
73919;SDS011;62266;53.348;-1.496;2022-10-13T11:51:05;8.15;;;1.98;;
73919;SDS011;62266;53.348;-1.496;2022-10-13T11:56:19;7.77;;;1.80;;
73919;SDS011;62266;53.348;-1.496;2022-10-13T11:58:59;7.43;;;1.80;;
73919;SDS011;62266;53.348;-1.496;2022-10-13T12:01:25;8.47;;;1.83;;
73919;SDS011;62266;53.348;-1.496;2022-10-13T12:03:50;8.17;;;1.70;;
73919;SDS011;62266;53.348;-1.496;2022-10-13T12:08:45;5.10;;;1.73;;
73919;SDS011;62266;53.348;-1.496;2022-10-13T12:11:23;3.38;;;1.00;;
73919;SDS011;62266;53.348;-1.496;2022-10-13T12:13:50;5.18;;;1.55;;
73919;SDS011;62266;53.348;-1.496;2022-10-13T12:16:16;6.80;;;1.52;;
73919;SDS011;62266;53.348;-1.496;2022-10-13T12:18:42;6.50;;;1.30;;
73919;SDS011;62266;53.348;-1.496;2022-10-13T12:21:09;4.20;;;1.03;;
73919;SDS011;62266;53.348;-1.496;2022-10-13T12:23:36;6.57;;;1.42;;
73919;SDS011;62266;53.348;-1.496;2022-10-13T12:26:02;7.10;;;1.58;;
73919;SDS011;62266;53.348;-1.496;2022-10-13T12:28:47;8.50;;;1.40;;
73919;SDS011;62266;53.348;-1.496;2022-10-13T12:31:19;7.40;;;1.80;;
73919;SDS011;62266;53.348;-1.496;2022-10-13T12:33:53;6.93;;;2.08;;
73919;SDS011;62266;53.348;-1.496;2022-10-13T12:36:26;6.60;;;1.48;;
73919;SDS011;62266;53.348;-1.496;2022-10-13T12:38:57;9.90;;;1.33;;
73919;SDS011;62266;53.348;-1.496;2022-10-13T12:41:25;4.83;;;1.33;;
73919;SDS011;62266;53.348;-1.496;2022-10-13T12:43:52;7.03;;;1.30;;
73919;SDS011;62266;53.348;-1.496;2022-10-13T12:49:11;5.53;;;1.27;;
73919;SDS011;62266;53.348;-1.496;2022-10-13T12:51:37;5.38;;;1.50;;
73919;SDS011;62266;53.348;-1.496;2022-10-13T12:54:07;7.40;;;1.20;;
73919;SDS011;62266;53.348;-1.496;2022-10-13T12:56:33;4.47;;;1.30;;
73919;SDS011;62266;53.348;-1.496;2022-10-13T12:58:59;4.65;;;1.30;;
73919;SDS011;62266;53.348;-1.496;2022-10-13T13:01:26;5.50;;;1.23;;
73919;SDS011;62266;53.348;-1.496;2022-10-13T13:03:59;6.20;;;1.58;;
73919;SDS011;62266;53.348;-1.496;2022-10-13T13:06:29;5.15;;;1.52;;
73919;SDS011;62266;53.348;-1.496;2022-10-13T13:09:07;5.10;;;1.50;;
73919;SDS011;62266;53.348;-1.496;2022-10-13T13:11:43;8.20;;;1.87;;
73919;SDS011;62266;53.348;-1.496;2022-10-13T13:17:13;4.43;;;1.30;;
73919;SDS011;62266;53.348;-1.496;2022-10-13T13:19:48;9.73;;;1.45;;
73919;SDS011;62266;53.348;-1.496;2022-10-13T13:22:15;3.90;;;1.10;;
73919;SDS011;62266;53.348;-1.496;2022-10-13T13:24:41;4.57;;;1.10;;
73919;SDS011;62266;53.348;-1.496;2022-10-13T13:29:37;4.22;;;1.67;;
73919;SDS011;62266;53.348;-1.496;2022-10-13T13:32:03;6.50;;;1.73;;
73919;SDS011;62266;53.348;-1.496;2022-10-13T13:34:28;5.45;;;1.73;;
73919;SDS011;62266;53.348;-1.496;2022-10-13T13:36:54;4.63;;;1.83;;
73919;SDS011;62266;53.348;-1.496;2022-10-13T13:39:20;4.50;;;1.20;;
73919;SDS011;62266;53.348;-1.496;2022-10-13T13:41:45;5.97;;;1.38;;
73919;SDS011;62266;53.348;-1.496;2022-10-13T13:44:11;3.30;;;1.23;;
73919;SDS011;62266;53.348;-1.496;2022-10-13T13:46:38;7.05;;;1.50;;
73919;SDS011;62266;53.348;-1.496;2022-10-13T13:49:03;6.68;;;1.48;;
73919;SDS011;62266;53.348;-1.496;2022-10-13T13:51:29;5.07;;;1.50;;
73919;SDS011;62266;53.348;-1.496;2022-10-13T13:53:55;5.70;;;1.38;;
73919;SDS011;62266;53.348;-1.496;2022-10-13T13:56:21;11.00;;;2.05;;
73919;SDS011;62266;53.348;-1.496;2022-10-13T13:58:47;6.97;;;1.40;;
73919;SDS011;62266;53.348;-1.496;2022-10-13T14:01:13;7.05;;;1.30;;
73919;SDS011;62266;53.348;-1.496;2022-10-13T14:03:39;5.37;;;1.87;;
73919;SDS011;62266;53.348;-1.496;2022-10-13T14:06:05;7.97;;;1.63;;
73919;SDS011;62266;53.348;-1.496;2022-10-13T14:08:32;6.65;;;2.00;;
73919;SDS011;62266;53.348;-1.496;2022-10-13T14:11:00;5.97;;;1.58;;
73919;SDS011;62266;53.348;-1.496;2022-10-13T14:13:30;4.83;;;1.37;;
73919;SDS011;62266;53.348;-1.496;2022-10-13T14:15:56;6.25;;;1.73;;
73919;SDS011;62266;53.348;-1.496;2022-10-13T14:18:23;4.95;;;1.40;;
73919;SDS011;62266;53.348;-1.496;2022-10-13T14:20:49;5.17;;;1.40;;
73919;SDS011;62266;53.348;-1.496;2022-10-13T14:23:14;4.82;;;1.20;;
73919;SDS011;62266;53.348;-1.496;2022-10-13T14:25:40;7.43;;;1.40;;
73919;SDS011;62266;53.348;-1.496;2022-10-13T14:28:06;5.63;;;1.20;;
73919;SDS011;62266;53.348;-1.496;2022-10-13T14:30:31;5.75;;;1.50;;
73919;SDS011;62266;53.348;-1.496;2022-10-13T14:32:58;5.38;;;1.77;;
73919;SDS011;62266;53.348;-1.496;2022-10-13T14:35:24;7.83;;;1.40;;
73919;SDS011;62266;53.348;-1.496;2022-10-13T14:37:50;3.97;;;1.38;;
73919;SDS011;62266;53.348;-1.496;2022-10-13T14:40:16;5.03;;;1.30;;
73919;SDS011;62266;53.348;-1.496;2022-10-13T14:42:42;5.82;;;1.58;;
73919;SDS011;62266;53.348;-1.496;2022-10-13T14:45:08;4.93;;;1.00;;
73919;SDS011;62266;53.348;-1.496;2022-10-13T14:47:34;4.53;;;1.42;;
73919;SDS011;62266;53.348;-1.496;2022-10-13T14:50:00;5.53;;;1.13;;
73919;SDS011;62266;53.348;-1.496;2022-10-13T14:52:26;6.90;;;1.13;;
73919;SDS011;62266;53.348;-1.496;2022-10-13T14:54:52;5.22;;;1.40;;
73919;SDS011;62266;53.348;-1.496;2022-10-13T14:57:19;5.17;;;1.63;;
73919;SDS011;62266;53.348;-1.496;2022-10-13T14:59:45;4.47;;;1.27;;
73919;SDS011;62266;53.348;-1.496;2022-10-13T15:02:11;4.93;;;1.58;;
73919;SDS011;62266;53.348;-1.496;2022-10-13T15:04:37;4.57;;;1.23;;
73919;SDS011;62266;53.348;-1.496;2022-10-13T15:07:03;5.13;;;1.50;;
73919;SDS011;62266;53.348;-1.496;2022-10-13T15:09:29;8.35;;;1.42;;
73919;SDS011;62266;53.348;-1.496;2022-10-13T15:12:00;4.82;;;1.40;;
73919;SDS011;62266;53.348;-1.496;2022-10-13T15:14:26;4.38;;;1.50;;
73919;SDS011;62266;53.348;-1.496;2022-10-13T15:16:53;5.30;;;1.50;;
73919;SDS011;62266;53.348;-1.496;2022-10-13T15:19:19;5.80;;;2.15;;
73919;SDS011;62266;53.348;-1.496;2022-10-13T15:21:46;5.07;;;1.55;;
73919;SDS011;62266;53.348;-1.496;2022-10-13T15:24:20;4.38;;;1.45;;
73919;SDS011;62266;53.348;-1.496;2022-10-13T15:29:56;7.23;;;2.53;;
73919;SDS011;62266;53.348;-1.496;2022-10-13T15:32:21;6.10;;;2.70;;
73919;SDS011;62266;53.348;-1.496;2022-10-13T15:34:47;5.65;;;2.75;;
73919;SDS011;62266;53.348;-1.496;2022-10-13T15:37:13;8.10;;;3.27;;
73919;SDS011;62266;53.348;-1.496;2022-10-13T15:39:39;6.82;;;2.53;;
73919;SDS011;62266;53.348;-1.496;2022-10-13T15:42:05;5.40;;;2.90;;
73919;SDS011;62266;53.348;-1.496;2022-10-13T15:44:31;7.17;;;3.73;;
73919;SDS011;62266;53.348;-1.496;2022-10-13T15:46:57;7.35;;;3.03;;
73919;SDS011;62266;53.348;-1.496;2022-10-13T15:49:25;6.35;;;3.50;;
73919;SDS011;62266;53.348;-1.496;2022-10-13T15:51:51;6.57;;;3.25;;
73919;SDS011;62266;53.348;-1.496;2022-10-13T15:54:23;7.07;;;3.33;;
73919;SDS011;62266;53.348;-1.496;2022-10-13T15:56:51;7.93;;;3.43;;
73919;SDS011;62266;53.348;-1.496;2022-10-13T15:59:18;6.65;;;2.85;;
73919;SDS011;62266;53.348;-1.496;2022-10-13T16:01:47;10.25;;;3.58;;
73919;SDS011;62266;53.348;-1.496;2022-10-13T16:04:13;4.65;;;2.80;;
73919;SDS011;62266;53.348;-1.496;2022-10-13T16:06:38;7.00;;;3.30;;
73919;SDS011;62266;53.348;-1.496;2022-10-13T16:09:05;6.85;;;3.20;;
73919;SDS011;62266;53.348;-1.496;2022-10-13T16:11:31;8.75;;;3.15;;
73919;SDS011;62266;53.348;-1.496;2022-10-13T16:13:57;6.95;;;2.65;;
73919;SDS011;62266;53.348;-1.496;2022-10-13T16:16:22;5.23;;;2.50;;
73919;SDS011;62266;53.348;-1.496;2022-10-13T16:18:49;6.05;;;2.78;;
73919;SDS011;62266;53.348;-1.496;2022-10-13T16:21:18;8.30;;;2.50;;
73919;SDS011;62266;53.348;-1.496;2022-10-13T16:23:46;6.05;;;2.78;;
73919;SDS011;62266;53.348;-1.496;2022-10-13T16:26:12;7.60;;;2.97;;
73919;SDS011;62266;53.348;-1.496;2022-10-13T16:28:39;7.90;;;3.00;;
73919;SDS011;62266;53.348;-1.496;2022-10-13T16:31:05;7.77;;;3.97;;
73919;SDS011;62266;53.348;-1.496;2022-10-13T16:33:33;8.20;;;3.53;;
73919;SDS011;62266;53.348;-1.496;2022-10-13T16:36:03;11.18;;;4.32;;
73919;SDS011;62266;53.348;-1.496;2022-10-13T16:38:30;10.23;;;4.05;;
73919;SDS011;62266;53.348;-1.496;2022-10-13T16:40:57;10.70;;;3.42;;